Stations météo

réclame
Mon MeteoGroup
La Hoya, Espagne (8205): Température de l'air & dewpoint: 12.01.2019 13:00:00 - 18.01.2019 13:00:00 (CET)La Hoya, Espagne (8205): Vitesse du vent & gusts: 12.01.2019 13:00:00 - 18.01.2019 13:00:00 (CET)La Hoya, Espagne (8205): Direction du vent: 12.01.2019 13:00:00 - 18.01.2019 13:00:00 (CET)La Hoya, Espagne (8205): visibility: 12.01.2019 13:00:00 - 18.01.2019 13:00:00 (CET)La Hoya, Espagne (8205): Quantités de précipitations: 12.01.2019 13:00:00 - 18.01.2019 13:00:00 (CET)
Date & Time tt [°C] td [°C] ff [km/h] ff [knt] fx [km/h] fx [knt] dd vv [km] rr [mm]
18.01.2019 13:00:00 - - - - - - - - -
18.01.2019 12:00:00 -3,0 -7,8 21 11 29 15 W 20 0,0
18.01.2019 11:00:00 -3,2 -12,8 22 12 29 15 WSW 20 0,0
18.01.2019 10:00:00 -4,0 -13,9 21 11 27 14 WSW 20 0,0
18.01.2019 09:00:00 -5,1 -11,7 22 12 26 14 SW 7 0,0
18.01.2019 08:00:00 -5,5 -12,2 21 11 26 14 SW 2,1 0,0
18.01.2019 07:00:00 -3,8 -11,2 17 9 23 12 SSW 4,7 -
18.01.2019 06:00:00 -6,9 -10,3 10 6 22 12 WSW 20 0,0
18.01.2019 05:00:00 -7,3 -9,9 16 8 18 10 WSW 2,1 0,0
18.01.2019 04:00:00 -7,1 -11,2 15 8 19 10 WSW 4,7 0,0
18.01.2019 03:00:00 -7,1 -11,7 13 7 16 9 S 6 0,0
18.01.2019 02:00:00 -7,8 -14,5 9 5 21 11 SE 20 0,0
18.01.2019 01:00:00 -6,6 -8,6 16 8 29 16 ESE 20 -
18.01.2019 00:00:00 -5,7 -7,5 23 12 35 19 E 20 0,0
17.01.2019 23:00:00 -6,1 -8,6 24 13 33 18 E 20 0,0
17.01.2019 22:00:00 -5,8 -6,7 23 12 31 17 E 20 0,0
17.01.2019 21:00:00 -5,1 -5,7 19 10 31 17 E 20 0,0
17.01.2019 20:00:00 -5,2 -5,7 11 6 25 13 E 20 0,0
17.01.2019 19:00:00 -5,7 -6,0 11 6 22 12 E 20 -
17.01.2019 18:00:00 -4,6 -4,8 9 5 19 11 E 20 0,0
17.01.2019 17:00:00 -2,5 -2,7 13 7 28 15 E 12 0,0
17.01.2019 16:00:00 -2,4 -2,5 22 12 32 17 ENE 0,4 0,0
17.01.2019 15:00:00 -2,4 -2,5 20 11 27 14 E 0,2 0,0
17.01.2019 14:00:00 -2,6 -2,5 21 12 26 14 ENE 0,4 0,0
17.01.2019 13:00:00 -2,3 -2,2 21 11 31 17 ENE 0,1 -
17.01.2019 12:00:00 -2,6 -2,5 21 11 32 18 E 0,1 0,0
17.01.2019 11:00:00 -2,4 -2,5 18 10 24 13 E 0,1 0,0
17.01.2019 10:00:00 -2,7 -2,7 14 8 30 16 ENE 0,5 0,0
17.01.2019 09:00:00 -2,9 -3,0 19 11 31 17 ENE 0,9 0,0
17.01.2019 08:00:00 -3,1 -3,0 21 11 33 18 E 3,1 0,0
17.01.2019 07:00:00 -2,8 -2,7 14 7 20 11 ENE 0,8 -
17.01.2019 06:00:00 -2,9 -3,3 15 8 23 13 E 20 0,0
17.01.2019 05:00:00 -2,7 -3,6 18 10 24 13 E 20 0,0
17.01.2019 04:00:00 -2,6 -3,3 10 5 19 10 E 20 0,0
17.01.2019 03:00:00 -2,6 -2,7 11 6 17 9 E 20 0,0
17.01.2019 02:00:00 -2,6 -2,7 11 6 25 14 ENE 20 0,0
17.01.2019 01:00:00 -2,5 -3,0 8 4 11 6 E 6 -
17.01.2019 00:00:00 -2,3 -3,3 4 2 13 7 N 20 0,0
16.01.2019 23:00:00 -2,4 -2,7 6 4 11 6 WNW 0,6 0,0
16.01.2019 22:00:00 -2,5 -3,9 5 3 9 5 SSW 20 0,0
16.01.2019 21:00:00 -2,1 -3,0 4 2 8 4 WNW 20 0,0
16.01.2019 20:00:00 -2,6 -3,6 5 3 15 8 S 20 0,0
16.01.2019 19:00:00 -2,8 -4,2 10 5 12 7 WSW 20 -
16.01.2019 18:00:00 -0,1 -5,7 5 3 13 7 WSW 20 0,0
16.01.2019 17:00:00 2,5 -6,0 8 4 21 11 WNW 20 0,0
16.01.2019 16:00:00 5,3 -3,9 5 3 17 9 N 20 0,0
16.01.2019 15:00:00 5,2 -5,7 9 5 16 9 W 20 0,0
16.01.2019 14:00:00 5,3 -2,7 6 3 12 7 NE 20 0,0
16.01.2019 13:00:00 5,4 -6,7 5 3 14 8 NW 20 -
16.01.2019 12:00:00 5,5 -7,8 6 4 11 6 NNE 20 0,0
16.01.2019 11:00:00 6,0 -12,2 3 1 10 6 SE 20 0,0
16.01.2019 10:00:00 1,1 -15,1 9 5 12 7 SSW 20 0,0
16.01.2019 09:00:00 -0,9 -14,5 8 5 16 9 SSW 20 0,0
16.01.2019 08:00:00 -0,7 -13,9 10 5 23 12 SW 20 0,0
16.01.2019 07:00:00 1,9 -15,8 16 9 23 12 SW 20 -
16.01.2019 06:00:00 1,4 -14,5 17 9 24 13 SW 20 0,0
16.01.2019 05:00:00 1,7 -12,8 18 10 26 14 SW 20 0,0
16.01.2019 04:00:00 1,3 -9,4 18 10 25 13 WSW 20 0,0
16.01.2019 03:00:00 0,7 -9,9 14 8 24 13 SSW 20 0,0
16.01.2019 02:00:00 1,1 -8,6 - - - - - 20 0,0
16.01.2019 01:00:00 2,2 -7,8 17 9 22 12 SSW 20 -
16.01.2019 00:00:00 0,8 -8,2 16 9 19 11 SW 20 0,0
15.01.2019 23:00:00 0,7 -9,9 16 8 19 11 SW 20 0,0
15.01.2019 22:00:00 2,3 -7,8 15 8 20 11 SSW 20 0,0
15.01.2019 21:00:00 1,3 -6,4 11 6 17 9 SSW 20 0,0
15.01.2019 20:00:00 -0,3 -6,0 9 5 12 7 SSW 20 0,0
15.01.2019 19:00:00 -0,3 -6,0 6 4 11 6 SSW 20 -
15.01.2019 18:00:00 1,8 -5,7 7 4 11 6 SW 20 0,0
15.01.2019 17:00:00 6,9 -4,2 5 3 13 7 ENE 20 0,0
15.01.2019 16:00:00 7,2 -4,2 10 5 16 9 W 20 0,0
15.01.2019 15:00:00 7,4 -5,1 11 6 17 9 W 20 0,0
15.01.2019 14:00:00 8,0 -7,5 8 4 15 8 WNW 20 0,0
15.01.2019 13:00:00 7,7 -10,3 9 5 13 7 W 20 -
15.01.2019 12:00:00 8,3 -13,9 6 3 10 5 W 20 0,0
15.01.2019 11:00:00 9,0 -16,5 3 1 8 4 W 20 0,0
15.01.2019 10:00:00 3,1 -15,8 6 3 10 6 S 20 0,0
15.01.2019 09:00:00 1,6 -15,1 7 4 14 8 S 20 0,0
15.01.2019 08:00:00 3,3 -11,7 13 7 18 10 SSW 20 0,0
15.01.2019 07:00:00 3,2 -11,7 13 7 16 9 SW 20 -
15.01.2019 06:00:00 2,3 -10,8 11 6 19 10 SSW 20 0,0
15.01.2019 05:00:00 3,1 -12,2 14 7 17 9 SSW 20 0,0
15.01.2019 04:00:00 0,7 -12,2 7 4 10 6 SSW 20 0,0
15.01.2019 03:00:00 2,5 -15,1 8 4 12 7 SE 20 0,0
15.01.2019 02:00:00 3,2 -13,9 5 3 - - SSE 20 0,0
15.01.2019 01:00:00 4,1 -14,5 - - - - - 20 -
15.01.2019 00:00:00 5,1 -15,1 16 8 - - SE 20 0,0
14.01.2019 23:00:00 5,6 -17,2 - - - - - 20 0,0
14.01.2019 22:00:00 5,8 -15,8 - - - - - 20 0,0
14.01.2019 21:00:00 6,3 -15,8 - - - - - 20 0,0
14.01.2019 20:00:00 6,8 -11,2 - - - - - 20 0,0
14.01.2019 19:00:00 6,9 -7,5 18 10 - - E 20 -
14.01.2019 18:00:00 6,8 -7,5 14 7 22 12 E 20 0,0
14.01.2019 17:00:00 9,1 -9,0 13 7 21 11 E 20 0,0
14.01.2019 16:00:00 10,1 -8,2 11 6 17 9 E 20 0,0
14.01.2019 15:00:00 9,7 -6,4 9 5 14 7 E 20 0,0
14.01.2019 14:00:00 9,2 -5,7 11 6 17 9 E 20 0,0
14.01.2019 13:00:00 - - - - - - - - -
14.01.2019 12:00:00 10,3 -7,1 10 5 22 12 E 20 0,0
14.01.2019 11:00:00 8,6 -6,4 9 5 18 10 E 20 0,0
14.01.2019 10:00:00 5,7 -5,4 12 7 20 11 ESE 20 0,0
14.01.2019 09:00:00 4,4 -5,1 10 5 19 10 ESE 20 0,0
14.01.2019 08:00:00 4,3 -5,4 16 9 22 12 ESE 20 0,0
14.01.2019 07:00:00 4,5 -5,7 15 8 19 10 ESE 20 -
14.01.2019 06:00:00 3,7 -5,7 15 8 - - ESE 20 0,0
14.01.2019 05:00:00 3,9 -5,1 - - - - - 20 0,0
14.01.2019 04:00:00 3,5 -3,3 - - - - - 20 0,0
14.01.2019 03:00:00 4,9 -4,5 - - - - - 20 0,0
14.01.2019 02:00:00 5,6 -6,4 - - - - - 20 0,0
14.01.2019 01:00:00 6,1 -6,7 - - - - - 20 -
14.01.2019 00:00:00 5,9 -10,8 - - - - - 20 0,0
13.01.2019 23:00:00 6,0 -13,9 - - - - - 20 0,0
13.01.2019 22:00:00 6,2 -15,8 - - - - - 20 0,0
13.01.2019 21:00:00 5,8 -15,8 - - - - - 20 0,0
13.01.2019 20:00:00 5,9 -10,8 - - - - - 20 0,0
13.01.2019 19:00:00 4,8 -6,7 - - - - - 20 -
13.01.2019 18:00:00 6,0 -5,4 - - - - - 20 0,0
13.01.2019 17:00:00 6,5 -9,0 - - - - - 20 0,0
13.01.2019 16:00:00 6,3 -12,8 16 9 24 13 E 20 0,0
13.01.2019 15:00:00 7,2 -10,8 15 8 25 13 E 20 0,0
13.01.2019 14:00:00 7,4 -11,2 13 7 25 14 E 20 0,0
13.01.2019 13:00:00 7,6 -13,9 14 7 22 12 E 20 -
13.01.2019 12:00:00 6,7 -11,7 15 8 27 14 E 20 0,0
13.01.2019 11:00:00 5,4 -15,8 17 9 - - E 20 0,0
13.01.2019 10:00:00 - - - - - - - - -
13.01.2019 09:00:00 2,0 -21,6 - - - - - 20 0,0
13.01.2019 08:00:00 1,4 -18,8 - - - - - 20 0,0
13.01.2019 07:00:00 2,6 -19,6 17 9 22 12 ESE 20 -
13.01.2019 06:00:00 3,2 -18,0 16 9 21 12 E 20 0,0
13.01.2019 05:00:00 3,0 -17,2 17 9 - - ESE 20 0,0
13.01.2019 04:00:00 3,6 -16,5 18 10 27 14 E 20 0,0
13.01.2019 03:00:00 4,5 -16,5 - - - - - 20 0,0
13.01.2019 02:00:00 3,8 -13,9 - - - - - 20 0,0
13.01.2019 01:00:00 3,3 -13,3 - - - - - 20 -
13.01.2019 00:00:00 3,5 -12,8 - - - - - 20 0,0
12.01.2019 23:00:00 2,9 -10,8 - - - - - 20 0,0
12.01.2019 22:00:00 1,8 -13,3 - - - - - 20 0,0
12.01.2019 21:00:00 2,2 -18,8 - - - - - 20 0,0
12.01.2019 20:00:00 1,7 -19,6 - - - - - 20 0,0
12.01.2019 19:00:00 0,2 -15,8 9 5 16 8 E 20 -
12.01.2019 18:00:00 0,7 -10,8 5 3 9 5 ESE 20 0,0
12.01.2019 17:00:00 3,7 -12,2 6 3 14 7 E 20 0,0
12.01.2019 16:00:00 5,5 -9,4 7 4 16 9 E 20 0,0
12.01.2019 15:00:00 6,4 -9,9 8 4 13 7 NNW 20 0,0
12.01.2019 14:00:00 6,9 -9,4 5 3 16 8 NE 20 0,0
12.01.2019 13:00:00 6,3 -8,2 5 3 13 7 NW 20 -

tt = Température de l'air
td = dewpoint
ff = Vitesse du vent
fx = gusts
dd = Direction du vent
vv = visibility
rr = Quantités de précipitations

stations d'obs. à proximité